Time;durP1;ratioP1;P1;durP2;ratioP2;P2;SDS_P1;SDS_P2;PMS_P1;PMS_P2;Temp;Humidity;BMP_temperature;BMP_pressure;BME280_temperature;BME280_humidity;BME280_pressure;Samples;Min_cycle;Max_cycle;Signal;HPM_P1;HPM_P2
2022/11/12 00:02:48;;;;;;;6.97;3.10;;;;;;;;;;6093015;28;20120;-83
2022/11/12 00:06:08;;;;;;;6.30;3.15;;;;;;;;;;6092144;28;20135;-84
2022/11/12 00:09:29;;;;;;;6.25;3.17;;;;;;;;;;6070622;28;20048;-83
2022/11/12 00:12:49;;;;;;;8.57;2.90;;;;;;;;;;6085602;28;20048;-84
2022/11/12 00:16:10;;;;;;;9.32;4.03;;;;;;;;;;6087494;28;20036;-84
2022/11/12 00:19:30;;;;;;;13.50;4.10;;;;;;;;;;6072995;28;20580;-83
2022/11/12 00:22:50;;;;;;;9.10;3.67;;;;;;;;;;6090322;28;20048;-84
2022/11/12 00:26:10;;;;;;;12.23;3.58;;;;;;;;;;6091218;28;20135;-83
2022/11/12 00:29:30;;;;;;;11.98;3.47;;;;;;;;;;6080970;28;20048;-83
2022/11/12 00:32:51;;;;;;;6.95;3.08;;;;;;;;;;6080993;28;20131;-83
2022/11/12 00:36:11;;;;;;;7.25;3.55;;;;;;;;;;6085885;28;20060;-83
2022/11/12 00:39:31;;;;;;;11.40;3.63;;;;;;;;;;6073829;28;20044;-84
2022/11/12 00:42:52;;;;;;;9.63;3.47;;;;;;;;;;6089230;28;20060;-85
2022/11/12 00:46:12;;;;;;;12.90;4.30;;;;;;;;;;6091623;28;20044;-85
2022/11/12 00:49:33;;;;;;;10.57;4.85;;;;;;;;;;6098922;28;20052;-84
2022/11/12 00:52:53;;;;;;;21.23;4.47;;;;;;;;;;6077004;28;20048;-85
2022/11/12 00:56:14;;;;;;;16.20;4.57;;;;;;;;;;6093960;28;20139;-84
2022/11/12 00:59:34;;;;;;;8.23;4.25;;;;;;;;;;6090431;28;20044;-84
2022/11/12 01:02:54;;;;;;;9.98;5.25;;;;;;;;;;6079866;28;20060;-83
2022/11/12 01:06:17;;;;;;;15.18;5.05;;;;;;;;;;6090537;28;20588;-85
2022/11/12 01:09:38;;;;;;;11.55;5.40;;;;;;;;;;6099541;28;20050;-85
2022/11/12 01:12:58;;;;;;;11.68;5.20;;;;;;;;;;6108761;28;20041;-85
2022/11/12 01:16:20;;;;;;;15.55;4.53;;;;;;;;;;6082732;28;20044;-83
2022/11/12 01:19:41;;;;;;;10.38;4.28;;;;;;;;;;6088045;28;20064;-83
2022/11/12 01:23:01;;;;;;;7.78;3.78;;;;;;;;;;6076892;28;20091;-85
2022/11/12 01:26:21;;;;;;;10.38;4.15;;;;;;;;;;6092969;28;20071;-84
2022/11/12 01:29:42;;;;;;;8.00;4.00;;;;;;;;;;6094749;28;20234;-84
2022/11/12 01:33:02;;;;;;;10.70;3.85;;;;;;;;;;6097881;28;20044;-83
2022/11/12 01:36:24;;;;;;;10.15;4.38;;;;;;;;;;6094905;28;20418;-85
2022/11/12 01:39:44;;;;;;;11.45;3.83;;;;;;;;;;6099934;28;20048;-84
2022/11/12 01:43:12;;;;;;;8.88;4.43;;;;;;;;;;6099282;28;20068;-84
2022/11/12 01:46:36;;;;;;;18.08;4.25;;;;;;;;;;6092865;28;20626;-85
2022/11/12 01:50:10;;;;;;;8.45;3.53;;;;;;;;;;6097346;28;20158;-83
2022/11/12 01:53:36;;;;;;;12.45;2.70;;;;;;;;;;6105047;28;20044;-83
2022/11/12 01:56:58;;;;;;;4.43;3.13;;;;;;;;;;6105956;28;20044;-84
2022/11/12 02:00:19;;;;;;;6.18;3.25;;;;;;;;;;6105040;28;20115;-83
2022/11/12 02:03:39;;;;;;;35.85;4.90;;;;;;;;;;6096412;28;20104;-83
2022/11/12 02:07:01;;;;;;;5.35;3.42;;;;;;;;;;6079471;28;20047;-84
2022/11/12 02:10:22;;;;;;;48.50;4.72;;;;;;;;;;6086186;28;20052;-83
2022/11/12 02:14:02;;;;;;;24.80;3.10;;;;;;;;;;6088960;28;20044;-82
2022/11/12 02:17:22;;;;;;;7.40;2.92;;;;;;;;;;6066160;28;20072;-83
2022/11/12 02:20:43;;;;;;;14.30;3.20;;;;;;;;;;6060358;28;20060;-83
2022/11/12 02:24:23;;;;;;;22.10;3.67;;;;;;;;;;6062076;28;20068;-84
2022/11/12 02:27:45;;;;;;;10.93;3.42;;;;;;;;;;6061635;28;20045;-83
2022/11/12 02:31:05;;;;;;;11.73;3.95;;;;;;;;;;6061232;28;20049;-83
2022/11/12 02:34:26;;;;;;;12.77;3.88;;;;;;;;;;6060787;28;20048;-85
2022/11/12 02:37:46;;;;;;;14.55;3.72;;;;;;;;;;6058833;28;20049;-84
2022/11/12 02:41:07;;;;;;;9.15;3.45;;;;;;;;;;6130565;28;20048;-85
2022/11/12 02:44:28;;;;;;;12.52;3.90;;;;;;;;;;6061322;28;20151;-84
2022/11/12 02:47:48;;;;;;;16.58;3.40;;;;;;;;;;6064038;28;20056;-83
2022/11/12 02:51:09;;;;;;;12.98;3.13;;;;;;;;;;6066409;28;20159;-83
2022/11/12 02:54:29;;;;;;;13.05;3.67;;;;;;;;;;6067459;28;20048;-83
2022/11/12 02:57:49;;;;;;;25.48;3.58;;;;;;;;;;6046561;28;20060;-83
2022/11/12 03:01:09;;;;;;;27.42;3.78;;;;;;;;;;6130018;28;20131;-83
2022/11/12 03:04:29;;;;;;;8.60;3.20;;;;;;;;;;6066408;28;20503;-83
2022/11/12 03:07:55;;;;;;;27.00;4.25;;;;;;;;;;6134666;28;20053;-82
2022/11/12 03:11:16;;;;;;;8.73;2.90;;;;;;;;;;6054345;28;20041;-84
2022/11/12 03:14:36;;;;;;;53.83;4.90;;;;;;;;;;6073209;28;20048;-82
2022/11/12 03:17:57;;;;;;;12.63;3.38;;;;;;;;;;6109069;28;20028;-83
2022/11/12 03:21:18;;;;;;;17.80;3.38;;;;;;;;;;6099679;28;20040;-83
2022/11/12 03:24:38;;;;;;;8.38;3.00;;;;;;;;;;6072239;28;20786;-83
2022/11/12 03:28:02;;;;;;;13.65;3.40;;;;;;;;;;6072930;28;20067;-83
2022/11/12 03:31:22;;;;;;;11.90;3.05;;;;;;;;;;6087769;28;20455;-83
2022/11/12 03:34:42;;;;;;;13.02;3.53;;;;;;;;;;6083961;28;20048;-83
2022/11/12 03:38:04;;;;;;;14.55;3.83;;;;;;;;;;6084389;28;20500;-83
2022/11/12 03:41:24;;;;;;;35.97;4.13;;;;;;;;;;6092279;28;20052;-84
2022/11/12 03:44:47;;;;;;;20.20;3.47;;;;;;;;;;6085365;28;20131;-83
2022/11/12 03:48:10;;;;;;;17.48;3.08;;;;;;;;;;6069120;28;20044;-83
2022/11/12 03:51:30;;;;;;;15.75;2.95;;;;;;;;;;6083688;28;20143;-84
2022/11/12 03:54:50;;;;;;;17.20;3.60;;;;;;;;;;6086586;28;20063;-84
2022/11/12 03:58:10;;;;;;;21.25;3.72;;;;;;;;;;6090369;28;20045;-83
2022/11/12 04:01:31;;;;;;;5.93;3.03;;;;;;;;;;6087226;28;20044;-83
2022/11/12 04:08:36;;;;;;;16.95;3.35;;;;;;;;;;6090411;28;20138;-83
2022/11/12 04:13:26;;;;;;;19.45;3.72;;;;;;;;;;6091071;28;20044;-83
2022/11/12 04:15:37;;;;;;;16.50;2.95;;;;;;;;;;6088275;28;20507;-84
2022/11/12 04:22:37;;;;;;;8.20;3.20;;;;;;;;;;6089775;28;20051;-83
2022/11/12 04:33:15;;;;;;;9.60;2.90;;;;;;;;;;6094804;28;20052;-83
2022/11/12 04:36:36;;;;;;;13.35;3.20;;;;;;;;;;6075698;28;20044;-83
2022/11/12 04:44:58;;;;;;;21.52;3.05;;;;;;;;;;6091096;28;20055;-84
2022/11/12 04:47:15;;;;;;;14.05;3.10;;;;;;;;;;6093505;28;20534;-83
2022/11/12 04:50:36;;;;;;;7.82;3.00;;;;;;;;;;6090029;28;20422;-83
2022/11/12 04:53:57;;;;;;;26.00;3.90;;;;;;;;;;6087294;28;20040;-84
2022/11/12 04:57:17;;;;;;;14.63;4.53;;;;;;;;;;6091949;28;20056;-84
2022/11/12 05:00:37;;;;;;;11.95;3.63;;;;;;;;;;6076872;28;20067;-83
2022/11/12 05:03:57;;;;;;;24.52;3.60;;;;;;;;;;6080235;28;20068;-82
2022/11/12 05:07:17;;;;;;;15.63;3.38;;;;;;;;;;6093562;28;20832;-83
2022/11/12 05:10:37;;;;;;;22.05;3.38;;;;;;;;;;6092123;28;20052;-83
2022/11/12 05:13:58;;;;;;;27.45;3.05;;;;;;;;;;6094483;28;20131;-82
2022/11/12 05:17:18;;;;;;;9.02;3.38;;;;;;;;;;6101465;28;20056;-83
2022/11/12 05:20:38;;;;;;;13.93;3.80;;;;;;;;;;6089786;28;20083;-83
2022/11/12 05:23:59;;;;;;;14.90;3.42;;;;;;;;;;6089075;28;20135;-84
2022/11/12 05:27:20;;;;;;;14.77;2.90;;;;;;;;;;6076859;28;20037;-83
2022/11/12 05:30:40;;;;;;;19.33;3.10;;;;;;;;;;6084410;28;20423;-83
2022/11/12 05:34:00;;;;;;;13.05;3.58;;;;;;;;;;6073031;28;20048;-84
2022/11/12 05:37:20;;;;;;;21.77;3.42;;;;;;;;;;6092844;28;20044;-83
2022/11/12 05:40:43;;;;;;;22.30;3.45;;;;;;;;;;6087341;28;20450;-83
2022/11/12 05:44:04;;;;;;;9.07;3.90;;;;;;;;;;6095790;28;20108;-82
2022/11/12 05:47:24;;;;;;;11.65;3.35;;;;;;;;;;6089575;28;20044;-83
2022/11/12 05:50:53;;;;;;;14.95;3.83;;;;;;;;;;6110408;28;20056;-83
2022/11/12 05:54:33;;;;;;;17.27;3.15;;;;;;;;;;6104303;28;20040;-83
2022/11/12 05:57:53;;;;;;;17.63;3.20;;;;;;;;;;6095411;28;20100;-82
2022/11/12 06:01:14;;;;;;;21.30;3.33;;;;;;;;;;6080123;28;20544;-84
2022/11/12 06:04:34;;;;;;;5.05;2.58;;;;;;;;;;6084232;28;20050;-83
2022/11/12 06:07:54;;;;;;;10.60;2.97;;;;;;;;;;6085255;28;20419;-83
2022/11/12 06:11:14;;;;;;;9.60;2.65;;;;;;;;;;6084035;28;20048;-85
2022/11/12 06:14:34;;;;;;;7.18;2.83;;;;;;;;;;6087529;28;20046;-82
2022/11/12 06:17:55;;;;;;;17.13;3.28;;;;;;;;;;6089669;28;20075;-84
2022/11/12 06:21:18;;;;;;;10.80;3.65;;;;;;;;;;6088684;28;20579;-83
2022/11/12 06:24:39;;;;;;;9.40;2.90;;;;;;;;;;6089084;28;20419;-83
2022/11/12 06:27:59;;;;;;;18.75;4.22;;;;;;;;;;6090982;28;20422;-84
2022/11/12 06:31:20;;;;;;;21.48;4.68;;;;;;;;;;6076414;28;20429;-84
2022/11/12 06:34:43;;;;;;;4.32;2.70;;;;;;;;;;6088920;28;20597;-84
2022/11/12 06:38:03;;;;;;;10.27;3.13;;;;;;;;;;6085387;28;20443;-82
2022/11/12 06:41:23;;;;;;;4.25;2.53;;;;;;;;;;6091773;28;20052;-83
2022/11/12 06:44:44;;;;;;;5.60;2.92;;;;;;;;;;6074173;28;20055;-82
2022/11/12 06:48:04;;;;;;;14.60;2.50;;;;;;;;;;6077295;28;20043;-82
2022/11/12 06:51:24;;;;;;;9.35;3.10;;;;;;;;;;6083215;28;20048;-84
2022/11/12 06:54:45;;;;;;;10.40;3.30;;;;;;;;;;6131924;28;20067;-82
2022/11/12 06:58:05;;;;;;;11.73;2.78;;;;;;;;;;6078819;28;20150;-82
2022/11/12 07:01:25;;;;;;;5.72;3.05;;;;;;;;;;6084694;28;20045;-83
2022/11/12 07:04:46;;;;;;;10.68;3.50;;;;;;;;;;6087685;28;20119;-82
2022/11/12 07:08:06;;;;;;;11.80;3.33;;;;;;;;;;6087006;28;20056;-80
2022/11/12 07:11:27;;;;;;;7.32;3.47;;;;;;;;;;6086468;28;20048;-84
2022/11/12 07:14:47;;;;;;;11.50;2.95;;;;;;;;;;6076222;28;20064;-84
2022/11/12 07:18:07;;;;;;;20.80;2.78;;;;;;;;;;6074567;28;20052;-83
2022/11/12 07:21:27;;;;;;;26.08;3.92;;;;;;;;;;6069766;28;20057;-83
2022/11/12 07:24:47;;;;;;;6.18;2.72;;;;;;;;;;6071890;28;20047;-82
2022/11/12 07:28:09;;;;;;;17.88;3.40;;;;;;;;;;6075549;28;21036;-82
2022/11/12 07:31:30;;;;;;;10.40;3.17;;;;;;;;;;6082946;28;20044;-84
2022/11/12 07:34:50;;;;;;;12.60;3.83;;;;;;;;;;6084820;28;20052;-82
2022/11/12 07:38:10;;;;;;;20.45;3.78;;;;;;;;;;6077154;28;20111;-82
2022/11/12 07:41:30;;;;;;;20.73;6.57;;;;;;;;;;6088541;28;20053;-83
2022/11/12 07:44:51;;;;;;;13.07;6.43;;;;;;;;;;6087531;28;20044;-84
2022/11/12 07:48:11;;;;;;;7.53;4.70;;;;;;;;;;6086166;28;20059;-83
2022/11/12 07:51:31;;;;;;;7.90;3.83;;;;;;;;;;6086697;28;20041;-82
2022/11/12 07:54:51;;;;;;;21.98;6.00;;;;;;;;;;6070574;28;20084;-83
2022/11/12 07:58:12;;;;;;;16.90;5.78;;;;;;;;;;6074397;28;20038;-83
2022/11/12 08:01:33;;;;;;;13.07;6.95;;;;;;;;;;6089833;28;20048;-84
2022/11/12 08:04:53;;;;;;;20.77;8.27;;;;;;;;;;6081465;28;20052;-82
2022/11/12 08:08:13;;;;;;;21.33;7.40;;;;;;;;;;6070925;28;20048;-84
2022/11/12 08:11:34;;;;;;;27.40;8.90;;;;;;;;;;6069638;28;20045;-83
2022/11/12 08:14:54;;;;;;;26.58;5.82;;;;;;;;;;6100393;28;20040;-84
2022/11/12 08:18:15;;;;;;;7.38;4.05;;;;;;;;;;6091104;28;20139;-84
2022/11/12 08:21:35;;;;;;;21.42;5.50;;;;;;;;;;6105019;28;20052;-84
2022/11/12 08:24:56;;;;;;;18.00;4.75;;;;;;;;;;6111709;28;20040;-88
2022/11/12 08:28:16;;;;;;;11.57;4.53;;;;;;;;;;6085605;28;20052;-87
2022/11/12 08:31:37;;;;;;;13.18;4.60;;;;;;;;;;6089937;28;20048;-87
2022/11/12 08:34:59;;;;;;;6.78;4.60;;;;;;;;;;6094082;28;20053;-86
2022/11/12 08:38:19;;;;;;;13.70;3.92;;;;;;;;;;6102339;28;20044;-87
2022/11/12 08:41:39;;;;;;;6.40;3.85;;;;;;;;;;6100509;28;20131;-87
2022/11/12 08:45:00;;;;;;;4.80;3.20;;;;;;;;;;6097914;28;20044;-83
2022/11/12 08:48:22;;;;;;;11.02;4.43;;;;;;;;;;6100493;28;20048;-86
2022/11/12 08:51:42;;;;;;;7.18;4.03;;;;;;;;;;6088927;28;20143;-84
2022/11/12 08:55:02;;;;;;;9.80;3.20;;;;;;;;;;6073223;28;20204;-83
2022/11/12 08:58:24;;;;;;;9.88;3.95;;;;;;;;;;6086182;28;20044;-84
2022/11/12 09:01:45;;;;;;;20.70;4.85;;;;;;;;;;6080024;28;20075;-84
2022/11/12 09:05:06;;;;;;;11.13;4.68;;;;;;;;;;6095276;28;20044;-87
2022/11/12 09:08:26;;;;;;;8.13;4.00;;;;;;;;;;6071334;28;20044;-86
2022/11/12 09:11:47;;;;;;;31.50;4.68;;;;;;;;;;6101037;28;20052;-83
2022/11/12 09:15:07;;;;;;;45.88;6.07;;;;;;;;;;6076805;28;20067;-86
2022/11/12 09:18:47;;;;;;;8.30;4.07;;;;;;;;;;6080000;28;20491;-83
2022/11/12 09:22:08;;;;;;;6.03;4.00;;;;;;;;;;6084844;28;20040;-85
2022/11/12 09:25:29;;;;;;;8.02;4.80;;;;;;;;;;6081264;28;20056;-84
2022/11/12 09:28:51;;;;;;;10.27;4.72;;;;;;;;;;6087865;28;20044;-86
2022/11/12 09:32:11;;;;;;;9.02;3.97;;;;;;;;;;6085762;28;20056;-85
2022/11/12 09:35:32;;;;;;;9.05;3.67;;;;;;;;;;6086205;28;20052;-84
2022/11/12 09:38:52;;;;;;;20.42;4.63;;;;;;;;;;6096660;28;20048;-83
2022/11/12 09:42:16;;;;;;;9.35;4.32;;;;;;;;;;6092650;28;20064;-85
2022/11/12 09:45:36;;;;;;;;;;;;;;;;;;6095242;28;20052;-84
2022/11/12 09:49:22;;;;;;;6.55;4.57;;;;;;;;;;6085716;28;19923;-84
2022/11/12 09:52:44;;;;;;;8.50;4.43;;;;;;;;;;6086490;28;20048;-86
2022/11/12 09:56:08;;;;;;;8.98;4.93;;;;;;;;;;6094541;28;20108;-83
2022/11/12 09:59:33;;;;;;;10.90;4.63;;;;;;;;;;6094620;28;20532;-83
2022/11/12 10:03:23;;;;;;;12.52;4.80;;;;;;;;;;6084171;28;20472;-84
2022/11/12 10:06:55;;;;;;;14.35;5.13;;;;;;;;;;6085402;28;20123;-86
2022/11/12 10:10:28;;;;;;;11.23;4.32;;;;;;;;;;6089302;28;20048;-84
2022/11/12 10:13:57;;;;;;;9.07;4.20;;;;;;;;;;6075940;28;20053;-86
2022/11/12 10:17:40;;;;;;;7.55;3.97;;;;;;;;;;6078741;28;20069;-85
2022/11/12 10:21:30;;;;;;;8.60;4.90;;;;;;;;;;6084495;28;20072;-86
2022/11/12 10:24:50;;;;;;;7.78;4.25;;;;;;;;;;6067573;28;20414;-86
2022/11/12 10:28:33;;;;;;;8.32;4.32;;;;;;;;;;6084312;28;20422;-85
2022/11/12 10:32:01;;;;;;;12.07;4.35;;;;;;;;;;6085928;28;20064;-85
2022/11/12 10:35:22;;;;;;;8.60;5.10;;;;;;;;;;6076319;28;20398;-85
2022/11/12 10:38:46;;;;;;;6.95;4.03;;;;;;;;;;6086235;28;20048;-85
2022/11/12 10:42:06;;;;;;;;;;;;;;;;;;6109366;28;20081;-86
2022/11/12 10:45:27;;;;;;;6.57;3.97;;;;;;;;;;6086882;28;19973;-85
2022/11/12 10:48:59;;;;;;;7.18;4.30;;;;;;;;;;6070048;28;20047;-84
2022/11/12 10:52:22;;;;;;;7.47;4.80;;;;;;;;;;6068198;28;20135;-85
2022/11/12 10:55:58;;;;;;;11.38;6.38;;;;;;;;;;6078796;28;20517;-87
2022/11/12 10:59:20;;;;;;;11.48;6.90;;;;;;;;;;6083454;28;20052;-85
2022/11/12 11:02:47;;;;;;;11.65;7.15;;;;;;;;;;6088662;28;20056;-90
2022/11/12 11:06:13;;;;;;;18.50;8.52;;;;;;;;;;6092262;28;20045;-88
2022/11/12 11:09:33;;;;;;;10.82;6.80;;;;;;;;;;6080164;28;20075;-88
2022/11/12 11:13:19;;;;;;;12.02;6.70;;;;;;;;;;6094212;28;20036;-87
2022/11/12 11:16:57;;;;;;;12.82;6.80;;;;;;;;;;6094233;28;20507;-85
2022/11/12 11:20:24;;;;;;;10.80;6.32;;;;;;;;;;6084495;28;20052;-86
2022/11/12 11:23:57;;;;;;;8.77;5.45;;;;;;;;;;6075132;28;20048;-86
2022/11/12 11:27:29;;;;;;;14.55;6.70;;;;;;;;;;6085153;28;20074;-87
2022/11/12 11:31:05;;;;;;;11.85;5.65;;;;;;;;;;6086514;28;20048;-85
2022/11/12 11:34:34;;;;;;;6.85;4.25;;;;;;;;;;6075346;28;20055;-88
2022/11/12 11:38:25;;;;;;;8.25;4.25;;;;;;;;;;6090949;28;20083;-86
2022/11/12 11:42:01;;;;;;;7.55;5.53;;;;;;;;;;6070629;28;20129;-87
2022/11/12 11:45:38;;;;;;;11.20;5.60;;;;;;;;;;6097377;28;20513;-87
2022/11/12 11:49:19;;;;;;;11.30;6.18;;;;;;;;;;6090432;28;20048;-86
2022/11/12 11:53:09;;;;;;;12.63;6.43;;;;;;;;;;6091191;28;20185;-87
2022/11/12 11:56:35;;;;;;;10.77;6.13;;;;;;;;;;6093957;28;20070;-86
2022/11/12 12:00:18;;;;;;;7.88;4.15;;;;;;;;;;6100476;28;20124;-87
2022/11/12 12:03:54;;;;;;;5.85;4.60;;;;;;;;;;6106506;28;20291;-89
2022/11/12 12:07:51;;;;;;;8.75;5.80;;;;;;;;;;6107927;28;20048;-88
2022/11/12 12:11:46;;;;;;;7.72;4.80;;;;;;;;;;6106264;28;20403;-87
2022/11/12 12:15:29;;;;;;;9.30;5.63;;;;;;;;;;6104026;28;20040;-88
2022/11/12 12:18:58;;;;;;;8.65;5.32;;;;;;;;;;6102132;28;20866;-86
2022/11/12 12:22:25;;;;;;;8.80;5.70;;;;;;;;;;6078188;28;20044;-86
2022/11/12 12:25:48;;;;;;;7.75;5.53;;;;;;;;;;6138803;28;20474;-86
2022/11/12 12:29:21;;;;;;;7.47;5.60;;;;;;;;;;6075592;28;20063;-86
2022/11/12 12:32:46;;;;;;;8.52;4.80;;;;;;;;;;6092904;28;20048;-88
2022/11/12 12:36:11;;;;;;;5.65;4.20;;;;;;;;;;6100511;28;20060;-87
2022/11/12 12:39:45;;;;;;;7.40;4.72;;;;;;;;;;6080734;28;20044;-87
2022/11/12 12:43:27;;;;;;;7.43;4.15;;;;;;;;;;6086488;28;20040;-86
2022/11/12 12:46:59;;;;;;;7.50;4.38;;;;;;;;;;6084387;28;20480;-87
2022/11/12 12:50:21;;;;;;;6.70;4.68;;;;;;;;;;6086599;28;20060;-87
2022/11/12 12:53:41;;;;;;;7.10;5.13;;;;;;;;;;6094820;28;20060;-87
2022/11/12 12:57:03;;;;;;;7.68;4.88;;;;;;;;;;6078553;28;20044;-84
2022/11/12 13:00:40;;;;;;;7.03;4.60;;;;;;;;;;6092797;28;20048;-86
2022/11/12 13:04:07;;;;;;;13.52;5.75;;;;;;;;;;6092763;28;20052;-86
2022/11/12 13:07:46;;;;;;;5.90;4.78;;;;;;;;;;6087597;28;20123;-86
2022/11/12 13:11:08;;;;;;;14.75;6.25;;;;;;;;;;6087342;28;20052;-85
2022/11/12 13:14:35;;;;;;;27.48;10.90;;;;;;;;;;6083851;28;20439;-85
2022/11/12 13:17:55;;;;;;;13.65;7.60;;;;;;;;;;6094003;28;20052;-86
2022/11/12 13:21:18;;;;;;;13.32;6.53;;;;;;;;;;6093961;28;20044;-86
2022/11/12 13:25:12;;;;;;;14.98;6.70;;;;;;;;;;6092923;28;20052;-85
2022/11/12 13:28:35;;;;;;;10.38;5.97;;;;;;;;;;6074986;28;20067;-85
2022/11/12 13:32:29;;;;;;;8.52;5.50;;;;;;;;;;6075533;28;20606;-84
2022/11/12 13:35:49;;;;;;;7.05;4.68;;;;;;;;;;6090036;28;20512;-85
2022/11/12 13:39:14;;;;;;;8.68;4.00;;;;;;;;;;6087146;28;20056;-85
2022/11/12 13:42:49;;;;;;;5.95;3.80;;;;;;;;;;6095094;28;20089;-86
2022/11/12 13:46:26;;;;;;;5.95;3.88;;;;;;;;;;6089084;28;20131;-85
2022/11/12 13:49:47;;;;;;;7.35;4.43;;;;;;;;;;6076840;28;20048;-87
2022/11/12 13:53:09;;;;;;;4.60;3.42;;;;;;;;;;6092924;28;20055;-86
2022/11/12 13:56:34;;;;;;;8.15;4.32;;;;;;;;;;6096238;28;20108;-87
2022/11/12 14:00:19;;;;;;;7.13;4.60;;;;;;;;;;6082102;28;20044;-86
2022/11/12 14:03:46;;;;;;;12.07;6.88;;;;;;;;;;6086301;28;20044;-84
2022/11/12 14:07:24;;;;;;;14.50;7.68;;;;;;;;;;6085531;28;20048;-85
2022/11/12 14:11:06;;;;;;;17.15;9.05;;;;;;;;;;6091668;28;20048;-87
2022/11/12 14:14:58;;;;;;;11.40;6.13;;;;;;;;;;6084701;28;20056;-86
2022/11/12 14:18:48;;;;;;;11.43;5.78;;;;;;;;;;6074381;28;20642;-85
2022/11/12 14:22:13;;;;;;;9.15;6.72;;;;;;;;;;6082045;28;20434;-84
2022/11/12 14:25:47;;;;;;;9.40;5.40;;;;;;;;;;6071620;28;20052;-84
2022/11/12 14:29:16;;;;;;;16.75;8.45;;;;;;;;;;6067296;28;20053;-84
2022/11/12 14:32:38;;;;;;;7.57;4.65;;;;;;;;;;6072086;28;20048;-85
2022/11/12 14:36:05;;;;;;;8.88;5.63;;;;;;;;;;6065613;28;20040;-85
2022/11/12 14:39:27;;;;;;;8.90;6.47;;;;;;;;;;6073864;28;20051;-85
2022/11/12 14:42:48;;;;;;;6.88;5.60;;;;;;;;;;6057252;28;20056;-87
2022/11/12 14:46:22;;;;;;;9.75;5.13;;;;;;;;;;6071567;28;20499;-84
2022/11/12 14:49:46;;;;;;;8.90;6.07;;;;;;;;;;6067853;28;20735;-83
2022/11/12 14:53:27;;;;;;;13.20;7.88;;;;;;;;;;6068426;28;20570;-84
2022/11/12 14:56:48;;;;;;;14.15;8.00;;;;;;;;;;6080457;28;20044;-86
2022/11/12 15:00:34;;;;;;;14.57;8.68;;;;;;;;;;6087593;28;20044;-85
2022/11/12 15:04:14;;;;;;;15.80;7.60;;;;;;;;;;6085651;28;20514;-87
2022/11/12 15:07:57;;;;;;;15.80;7.60;;;;;;;;;;6083079;28;20052;-86
2022/11/12 15:11:24;;;;;;;12.77;7.15;;;;;;;;;;6062702;28;20523;-86
2022/11/12 15:14:45;;;;;;;17.50;9.32;;;;;;;;;;6079629;28;20063;-85
2022/11/12 15:18:13;;;;;;;11.75;7.18;;;;;;;;;;6073474;28;21221;-85
2022/11/12 15:21:34;;;;;;;13.63;8.23;;;;;;;;;;6078231;28;20056;-85
2022/11/12 15:24:54;;;;;;;22.05;11.63;;;;;;;;;;6083105;28;20051;-85
2022/11/12 15:28:24;;;;;;;21.58;11.23;;;;;;;;;;6080987;28;20052;-86
2022/11/12 15:31:53;;;;;;;18.67;10.20;;;;;;;;;;6078183;28;20123;-84
2022/11/12 15:35:31;;;;;;;18.95;11.05;;;;;;;;;;6082053;28;20052;-84
2022/11/12 15:38:53;;;;;;;13.32;7.88;;;;;;;;;;6084695;28;20517;-89
2022/11/12 15:42:33;;;;;;;18.30;9.32;;;;;;;;;;6088758;28;20075;-85
2022/11/12 15:45:54;;;;;;;14.68;8.13;;;;;;;;;;6065523;28;20044;-85
2022/11/12 15:49:15;;;;;;;13.73;8.13;;;;;;;;;;6084150;28;20052;-84
2022/11/12 15:52:35;;;;;;;24.25;11.27;;;;;;;;;;6085746;28;20052;-84
2022/11/12 15:55:55;;;;;;;19.40;8.98;;;;;;;;;;6081758;28;20127;-84
2022/11/12 15:59:17;;;;;;;17.08;9.35;;;;;;;;;;6087482;28;20407;-84
2022/11/12 16:02:37;;;;;;;16.08;8.40;;;;;;;;;;6102058;28;21067;-84
2022/11/12 16:05:58;;;;;;;18.13;9.38;;;;;;;;;;6071570;28;21560;-85
2022/11/12 16:09:26;;;;;;;15.45;9.38;;;;;;;;;;6082809;28;20048;-84
2022/11/12 16:12:47;;;;;;;12.30;7.35;;;;;;;;;;6072025;28;20442;-85
2022/11/12 16:16:10;;;;;;;17.30;10.00;;;;;;;;;;6088217;28;20075;-84
2022/11/12 16:19:33;;;;;;;17.08;10.30;;;;;;;;;;6084462;28;20170;-86
2022/11/12 16:22:54;;;;;;;18.33;9.70;;;;;;;;;;6088294;28;20040;-86
2022/11/12 16:26:19;;;;;;;19.70;10.70;;;;;;;;;;6075289;28;20052;-85
2022/11/12 16:29:43;;;;;;;14.32;9.38;;;;;;;;;;6085176;28;20060;-85
2022/11/12 16:33:03;;;;;;;17.50;10.52;;;;;;;;;;6090859;28;20300;-86
2022/11/12 16:36:24;;;;;;;48.97;26.25;;;;;;;;;;6092800;28;20048;-85
2022/11/12 16:39:44;;;;;;;17.20;10.02;;;;;;;;;;6101793;28;20255;-85
2022/11/12 16:43:04;;;;;;;70.55;36.20;;;;;;;;;;6101794;28;20059;-85
2022/11/12 16:46:29;;;;;;;37.25;17.85;;;;;;;;;;6077470;28;20052;-84
2022/11/12 16:49:49;;;;;;;30.02;15.93;;;;;;;;;;6077843;28;20045;-85
2022/11/12 16:53:10;;;;;;;19.98;11.70;;;;;;;;;;6097171;28;20044;-85
2022/11/12 16:56:31;;;;;;;27.55;13.45;;;;;;;;;;6090432;28;20127;-85
2022/11/12 16:59:52;;;;;;;32.83;16.42;;;;;;;;;;6075598;28;20043;-86
2022/11/12 17:03:12;;;;;;;25.40;14.05;;;;;;;;;;6090657;28;20044;-84
2022/11/12 17:06:35;;;;;;;32.65;18.30;;;;;;;;;;6084629;28;20044;-84
2022/11/12 17:09:56;;;;;;;27.02;13.75;;;;;;;;;;6097916;28;20123;-80
2022/11/12 17:13:16;;;;;;;28.33;14.63;;;;;;;;;;6095574;28;20329;-84
2022/11/12 17:16:36;;;;;;;21.55;12.10;;;;;;;;;;6104060;28;20040;-85
2022/11/12 17:19:57;;;;;;;24.55;14.02;;;;;;;;;;6097532;28;20044;-85
2022/11/12 17:23:18;;;;;;;32.13;15.68;;;;;;;;;;6076737;28;20056;-86
2022/11/12 17:26:38;;;;;;;17.52;9.77;;;;;;;;;;6082222;28;20048;-85
2022/11/12 17:29:58;;;;;;;20.98;9.88;;;;;;;;;;6080317;28;20052;-84
2022/11/12 17:33:18;;;;;;;20.33;10.85;;;;;;;;;;6086012;28;20493;-86
2022/11/12 17:36:38;;;;;;;23.55;11.98;;;;;;;;;;6091835;28;20040;-85
2022/11/12 17:40:03;;;;;;;43.92;20.52;;;;;;;;;;6082299;28;20052;-88
2022/11/12 17:43:24;;;;;;;32.28;16.88;;;;;;;;;;6076043;28;20052;-86
2022/11/12 17:46:46;;;;;;;26.35;11.48;;;;;;;;;;6095714;28;20052;-87
2022/11/12 17:50:06;;;;;;;19.42;11.30;;;;;;;;;;6086191;28;20071;-87
2022/11/12 17:53:27;;;;;;;19.75;11.25;;;;;;;;;;6085101;28;20050;-87
2022/11/12 17:56:48;;;;;;;22.48;10.98;;;;;;;;;;6090567;28;20583;-86
2022/11/12 18:00:09;;;;;;;21.77;10.02;;;;;;;;;;6082768;28;20056;-85
2022/11/12 18:03:29;;;;;;;20.63;10.23;;;;;;;;;;6068950;28;20064;-85
2022/11/12 18:06:50;;;;;;;25.67;12.60;;;;;;;;;;6084931;28;20096;-86
2022/11/12 18:10:10;;;;;;;22.67;11.60;;;;;;;;;;6083503;28;20453;-88
2022/11/12 18:13:38;;;;;;;11.60;8.50;;;;;;;;;;6074818;28;20048;-84
2022/11/12 18:17:00;;;;;;;15.32;10.35;;;;;;;;;;6071399;28;20522;-85
2022/11/12 18:20:20;;;;;;;17.42;9.90;;;;;;;;;;6075814;28;20072;-85
2022/11/12 18:23:42;;;;;;;28.00;12.48;;;;;;;;;;6067348;28;20071;-84
2022/11/12 18:27:03;;;;;;;19.75;11.93;;;;;;;;;;6081010;28;20060;-84
2022/11/12 18:30:23;;;;;;;19.58;11.73;;;;;;;;;;6083138;28;20558;-85
2022/11/12 18:33:43;;;;;;;19.08;11.32;;;;;;;;;;6089736;28;20115;-86
2022/11/12 18:37:04;;;;;;;19.48;12.50;;;;;;;;;;6084920;28;20134;-85
2022/11/12 18:40:24;;;;;;;19.17;10.80;;;;;;;;;;6082399;28;21638;-85
2022/11/12 18:43:44;;;;;;;19.33;11.93;;;;;;;;;;6085546;28;20040;-84
2022/11/12 18:47:05;;;;;;;21.48;12.00;;;;;;;;;;6083998;28;20313;-85
2022/11/12 18:50:26;;;;;;;28.88;14.07;;;;;;;;;;6086892;28;20071;-83
2022/11/12 18:53:46;;;;;;;27.85;14.18;;;;;;;;;;6067970;28;20044;-85
2022/11/12 18:57:06;;;;;;;33.40;15.15;;;;;;;;;;6086701;28;21104;-87
2022/11/12 19:00:27;;;;;;;32.65;16.10;;;;;;;;;;6103330;28;20052;-86
2022/11/12 19:03:52;;;;;;;26.48;12.38;;;;;;;;;;6099257;28;20423;-87
2022/11/12 19:07:12;;;;;;;30.80;14.30;;;;;;;;;;6090973;28;20687;-85
2022/11/12 19:10:33;;;;;;;30.13;15.57;;;;;;;;;;6089923;28;20052;-86
2022/11/12 19:13:54;;;;;;;26.52;14.18;;;;;;;;;;6100555;28;20044;-86
2022/11/12 19:17:14;;;;;;;16.05;9.68;;;;;;;;;;6188697;28;20054;-86
2022/11/12 19:20:34;;;;;;;20.08;11.25;;;;;;;;;;6191632;28;20441;-86
2022/11/12 19:23:54;;;;;;;21.95;11.93;;;;;;;;;;6176163;28;20054;-86
2022/11/12 19:27:15;;;;;;;19.85;11.95;;;;;;;;;;6173653;28;20050;-86
2022/11/12 19:30:36;;;;;;;32.13;15.45;;;;;;;;;;6169552;28;20051;-83
2022/11/12 19:33:57;;;;;;;31.60;14.38;;;;;;;;;;6195130;28;20054;-85
2022/11/12 19:37:19;;;;;;;27.45;11.90;;;;;;;;;;6169220;28;20054;-85
2022/11/12 19:40:53;;;;;;;25.38;9.68;;;;;;;;;;6182291;28;20042;-87
2022/11/12 19:44:15;;;;;;;22.02;9.13;;;;;;;;;;6174809;28;20051;-86
2022/11/12 19:47:37;;;;;;;22.60;11.43;;;;;;;;;;6187876;28;20039;-86
2022/11/12 19:51:02;;;;;;;22.27;10.68;;;;;;;;;;6170236;28;20054;-86
2022/11/12 19:54:23;;;;;;;32.53;11.48;;;;;;;;;;6183653;28;20393;-87
2022/11/12 19:57:44;;;;;;;26.80;11.23;;;;;;;;;;6180286;28;20373;-86
2022/11/12 20:01:11;;;;;;;27.52;11.90;;;;;;;;;;6200219;28;20038;-85
2022/11/12 20:04:31;;;;;;;24.98;12.07;;;;;;;;;;6185835;28;20046;-85
2022/11/12 20:07:51;;;;;;;30.83;13.65;;;;;;;;;;6177278;28;20046;-86
2022/11/12 20:11:13;;;;;;;35.10;16.73;;;;;;;;;;6188731;28;20046;-85
2022/11/12 20:14:33;;;;;;;28.05;14.48;;;;;;;;;;6166549;28;20042;-85
2022/11/12 20:17:53;;;;;;;28.20;13.85;;;;;;;;;;6099835;28;21302;-87
2022/11/12 20:21:13;;;;;;;28.35;12.98;;;;;;;;;;6088084;28;20049;-86
2022/11/12 20:24:34;;;;;;;31.80;15.85;;;;;;;;;;6085228;28;20052;-86
2022/11/12 20:27:54;;;;;;;26.20;15.20;;;;;;;;;;6064725;28;20480;-85